Time;durP1;ratioP1;P1;durP2;ratioP2;P2;SDS_P1;SDS_P2;PMS_P1;PMS_P2;Temp;Humidity;BMP_temperature;BMP_pressure;BME280_temperature;BME280_humidity;BME280_pressure;Samples;Min_cycle;Max_cycle;Signal;HPM_P1;HPM_P2
2024/01/19 00:03:16;;;;;;;3.47;1.48;;;5.80;99.90;;;;;;10444023;28;20052;-62
2024/01/19 00:08:18;;;;;;;4.13;1.50;;;6.00;99.90;;;;;;10442488;28;20051;-64
2024/01/19 00:13:21;;;;;;;6.45;1.95;;;5.40;99.90;;;;;;10444620;28;20111;-62
2024/01/19 00:18:26;;;;;;;;;;;6.20;99.90;;;;;;10447268;28;20044;-64
2024/01/19 00:23:28;;;;;;;17.92;1.70;;;5.50;99.90;;;;;;10451754;28;19928;-63
2024/01/19 00:28:31;;;;;;;4.70;1.40;;;5.60;99.90;;;;;;10451786;28;20079;-62
2024/01/19 00:33:33;;;;;;;;;;;6.60;99.90;;;;;;10463319;28;20158;-63
2024/01/19 00:38:35;;;;;;;5.65;1.63;;;6.20;99.90;;;;;;10462638;28;20737;-64
2024/01/19 00:43:39;;;;;;;3.03;1.50;;;5.90;99.90;;;;;;10464868;28;20044;-63
2024/01/19 00:48:41;;;;;;;6.57;1.48;;;7.80;99.90;;;;;;10462798;28;20550;-64
2024/01/19 00:53:44;;;;;;;10.13;1.47;;;8.60;99.90;;;;;;10460251;28;20063;-63
2024/01/19 00:58:47;;;;;;;11.87;2.43;;;7.00;99.90;;;;;;10462268;28;20076;-64
2024/01/19 01:03:49;;;;;;;2.30;1.25;;;6.50;99.90;;;;;;10462761;28;20044;-65
2024/01/19 01:08:51;;;;;;;8.00;2.13;;;5.40;99.90;;;;;;10464766;28;20053;-63
2024/01/19 01:13:55;;;;;;;2.65;1.00;;;6.20;99.90;;;;;;10462382;28;20053;-62
2024/01/19 01:18:57;;;;;;;8.25;1.63;;;5.90;99.90;;;;;;10461862;28;20133;-62
2024/01/19 01:24:00;;;;;;;11.77;2.20;;;5.70;99.90;;;;;;10458690;28;20515;-62
2024/01/19 01:29:03;;;;;;;10.85;2.53;;;6.50;99.90;;;;;;10451022;28;20135;-64
2024/01/19 01:34:05;;;;;;;;;;;5.40;99.90;;;;;;10454034;28;20179;-63
2024/01/19 01:39:07;;;;;;;11.60;2.45;;;5.40;99.90;;;;;;10454592;28;20490;-63
2024/01/19 01:44:10;;;;;;;10.38;3.78;;;5.70;99.90;;;;;;10450349;28;20079;-63
2024/01/19 01:49:12;;;;;;;8.35;2.22;;;6.10;99.90;;;;;;10458074;28;20049;-65
2024/01/19 01:54:15;;;;;;;6.88;1.90;;;5.80;99.90;;;;;;10455439;28;20119;-62
2024/01/19 01:59:20;;;;;;;;;;;5.40;99.90;;;;;;10455359;28;20060;-63
2024/01/19 02:04:24;;;;;;;13.82;3.20;;;6.80;99.90;;;;;;10451863;28;19955;-61
2024/01/19 02:09:26;;;;;;;9.60;2.67;;;4.80;99.90;;;;;;10454282;28;20571;-63
2024/01/19 02:14:29;;;;;;;5.97;2.13;;;5.10;99.90;;;;;;10455247;28;20056;-63
2024/01/19 02:19:35;;;;;;;;;;;5.50;99.90;;;;;;10454532;28;20151;-63
2024/01/19 02:24:38;;;;;;;5.90;1.85;;;5.80;99.90;;;;;;10452673;28;19993;-61
2024/01/19 02:29:40;;;;;;;5.70;2.25;;;5.70;99.90;;;;;;10455148;28;20048;-62
2024/01/19 02:34:42;;;;;;;12.38;3.33;;;5.30;99.90;;;;;;10447901;28;20117;-63
2024/01/19 02:39:46;;;;;;;4.88;1.60;;;6.60;99.90;;;;;;10451043;28;20749;-62
2024/01/19 02:44:48;;;;;;;6.82;2.72;;;6.90;99.90;;;;;;10451798;28;20611;-64
2024/01/19 02:49:50;;;;;;;6.78;2.60;;;7.30;99.90;;;;;;10452467;28;20409;-64
2024/01/19 02:55:06;;;;;;;18.30;2.87;;;6.30;99.90;;;;;;10453500;28;20040;-64
2024/01/19 03:00:09;;;;;;;9.52;2.40;;;6.60;99.90;;;;;;10462476;28;20450;-62
2024/01/19 03:05:11;;;;;;;9.15;2.95;;;7.10;99.90;;;;;;10462624;28;20083;-63
2024/01/19 03:10:15;;;;;;;6.80;1.90;;;7.20;99.90;;;;;;10456018;28;20048;-63
2024/01/19 03:15:17;;;;;;;9.35;2.38;;;7.10;99.90;;;;;;10455332;28;20056;-62
2024/01/19 03:20:19;;;;;;;8.38;2.10;;;7.30;99.90;;;;;;10460112;28;20498;-64
2024/01/19 03:25:22;;;;;;;9.00;2.65;;;6.70;99.90;;;;;;10465497;28;20458;-63
2024/01/19 03:30:24;;;;;;;16.48;2.72;;;6.60;99.90;;;;;;10455616;28;20052;-63
2024/01/19 03:35:26;;;;;;;4.47;1.75;;;5.80;99.90;;;;;;10461955;28;20059;-62
2024/01/19 03:40:30;;;;;;;7.40;1.48;;;6.60;99.90;;;;;;10460893;28;20427;-63
2024/01/19 03:45:32;;;;;;;10.68;1.98;;;6.20;99.90;;;;;;10459418;28;20052;-63
2024/01/19 03:50:34;;;;;;;10.60;2.58;;;5.40;99.90;;;;;;10458787;28;20052;-63
2024/01/19 03:55:37;;;;;;;12.63;2.25;;;6.90;99.90;;;;;;10461089;28;20120;-61
2024/01/19 04:15:31;;;;;;;5.95;1.75;;;5.40;99.90;;;;;;10572458;27;20131;-64
2024/01/19 04:20:33;;;;;;;7.30;2.00;;;5.90;99.90;;;;;;10580891;27;20062;-63
2024/01/19 04:25:35;;;;;;;6.05;1.73;;;7.30;99.90;;;;;;10581727;27;20877;-64
2024/01/19 04:30:38;;;;;;;3.30;1.40;;;8.50;99.90;;;;;;10581085;27;20908;-63
2024/01/19 04:35:40;;;;;;;;;;;6.60;99.90;;;;;;10584851;27;20054;-63
2024/01/19 04:40:42;;;;;;;7.63;2.50;;;6.50;99.90;;;;;;10587182;27;19964;-63
2024/01/19 04:45:46;;;;;;;7.35;1.30;;;6.70;99.90;;;;;;10581044;27;20055;-63
2024/01/19 04:50:48;;;;;;;3.58;1.10;;;7.50;99.90;;;;;;10578426;27;20054;-62
2024/01/19 04:55:50;;;;;;;3.03;1.35;;;8.10;99.90;;;;;;10586864;27;20050;-62
2024/01/19 05:00:53;;;;;;;14.73;1.95;;;7.60;99.90;;;;;;10576205;27;20084;-64
2024/01/19 05:05:55;;;;;;;6.20;1.42;;;8.80;99.90;;;;;;10579356;27;20066;-64
2024/01/19 05:10:57;;;;;;;10.63;1.70;;;9.60;99.90;;;;;;10579719;27;20418;-63
2024/01/19 05:16:00;;;;;;;2.95;1.20;;;10.20;99.90;;;;;;10579745;27;20153;-62
2024/01/19 05:21:02;;;;;;;3.35;1.65;;;10.70;99.90;;;;;;10575942;27;20848;-63
2024/01/19 05:26:05;;;;;;;6.57;1.38;;;10.50;99.90;;;;;;10552771;27;20681;-63
2024/01/19 05:31:08;;;;;;;2.90;1.27;;;10.70;99.90;;;;;;10552559;27;20950;-62
2024/01/19 05:36:10;;;;;;;3.90;1.48;;;11.10;99.90;;;;;;10547915;27;20108;-63
2024/01/19 05:41:18;;;;;;;5.30;1.10;;;11.20;99.90;;;;;;10551527;27;20051;-64
2024/01/19 05:46:21;;;;;;;12.52;1.50;;;10.90;99.90;;;;;;10547529;27;20054;-62
2024/01/19 05:51:24;;;;;;;8.95;1.50;;;9.10;99.90;;;;;;10550224;27;20047;-63
2024/01/19 05:56:26;;;;;;;4.30;0.98;;;8.00;99.90;;;;;;10554256;27;20044;-63
2024/01/19 06:01:29;;;;;;;11.95;1.33;;;8.50;99.90;;;;;;10536418;28;20134;-64
2024/01/19 06:06:31;;;;;;;4.07;0.80;;;9.70;99.90;;;;;;10547469;27;20849;-63
2024/01/19 06:11:33;;;;;;;6.13;1.35;;;8.90;99.90;;;;;;10545443;27;20055;-63
2024/01/19 06:16:40;;;;;;;3.90;0.93;;;8.40;99.90;;;;;;10544498;27;20051;-63
2024/01/19 06:21:44;;;;;;;10.57;1.50;;;9.20;99.90;;;;;;10543020;27;20062;-64
2024/01/19 06:26:48;;;;;;;2.83;0.88;;;9.50;99.90;;;;;;10541918;27;20083;-63
2024/01/19 06:31:51;;;;;;;;;;;10.60;99.90;;;;;;10552348;27;20124;-63
2024/01/19 06:36:53;;;;;;;11.25;1.73;;;10.70;99.90;;;;;;10541403;27;20632;-64
2024/01/19 06:41:55;;;;;;;11.10;1.48;;;11.20;99.90;;;;;;10548042;27;20078;-63
2024/01/19 06:46:58;;;;;;;9.80;1.60;;;10.80;99.90;;;;;;10549571;27;20429;-63
2024/01/19 06:52:01;;;;;;;13.05;1.42;;;10.30;99.90;;;;;;10552251;27;20038;-63
2024/01/19 06:57:04;;;;;;;14.43;2.17;;;10.90;99.90;;;;;;10544725;27;20119;-63
2024/01/19 07:02:08;;;;;;;7.67;1.67;;;11.10;99.90;;;;;;10544777;27;20116;-64
2024/01/19 07:07:10;;;;;;;11.63;2.08;;;10.80;99.90;;;;;;10548702;27;20056;-63
2024/01/19 07:12:14;;;;;;;14.83;2.07;;;9.30;99.90;;;;;;10548168;27;20772;-62
2024/01/19 07:17:18;;;;;;;8.90;1.85;;;9.00;99.90;;;;;;10544092;27;20047;-62
2024/01/19 07:22:20;;;;;;;4.32;1.50;;;8.00;99.90;;;;;;10540645;27;20800;-63
2024/01/19 07:27:23;;;;;;;12.90;1.73;;;9.00;99.90;;;;;;10543514;27;20043;-63
2024/01/19 07:32:27;;;;;;;5.38;1.45;;;7.70;99.90;;;;;;10529573;27;20145;-63
2024/01/19 07:37:28;;;;;;;;;;;7.50;99.90;;;;;;10546823;27;20125;-63
2024/01/19 07:42:30;;;;;;;13.50;1.75;;;8.00;99.90;;;;;;10551013;27;20008;-63
2024/01/19 07:47:34;;;;;;;17.58;3.42;;;8.30;99.90;;;;;;10553101;27;20058;-63
2024/01/19 07:52:36;;;;;;;4.35;1.25;;;8.30;99.90;;;;;;10551006;28;20050;-63
2024/01/19 07:57:38;;;;;;;9.15;1.73;;;9.20;99.90;;;;;;10552172;27;20057;-64
2024/01/19 08:02:43;;;;;;;22.33;3.38;;;9.30;99.90;;;;;;10546107;27;20044;-61
2024/01/19 08:07:45;;;;;;;7.07;1.70;;;9.20;99.90;;;;;;10541169;27;20891;-63
2024/01/19 08:12:47;;;;;;;19.38;2.38;;;9.30;99.90;;;;;;10542807;28;20957;-64
2024/01/19 08:17:51;;;;;;;20.50;2.70;;;9.80;99.90;;;;;;10545942;28;20058;-63
2024/01/19 08:22:54;;;;;;;7.50;2.17;;;9.50;99.90;;;;;;10546464;28;20036;-64
2024/01/19 08:27:56;;;;;;;16.92;2.28;;;9.30;99.90;;;;;;10549167;28;20066;-63
2024/01/19 08:33:02;;;;;;;22.17;2.67;;;9.20;99.90;;;;;;10542085;28;20221;-62
2024/01/19 08:38:04;;;;;;;14.95;2.70;;;8.80;99.90;;;;;;10541036;28;20079;-63
2024/01/19 08:43:06;;;;;;;9.25;2.30;;;8.90;99.90;;;;;;10541639;28;20052;-63
2024/01/19 08:48:09;;;;;;;12.35;2.10;;;8.20;99.90;;;;;;10543296;28;20048;-63
2024/01/19 08:53:11;;;;;;;12.77;2.00;;;7.50;99.90;;;;;;10542579;28;20047;-62
2024/01/19 08:58:14;;;;;;;14.93;1.80;;;7.80;99.90;;;;;;10544009;27;20078;-63
2024/01/19 09:03:18;;;;;;;11.57;2.25;;;6.80;99.90;;;;;;10542925;27;20998;-65
2024/01/19 09:08:20;;;;;;;14.43;2.22;;;7.10;99.90;;;;;;10544221;27;20047;-63
2024/01/19 09:13:21;;;;;;;10.02;1.98;;;8.00;99.90;;;;;;10544415;27;20694;-63
2024/01/19 09:18:25;;;;;;;10.70;1.35;;;7.90;99.90;;;;;;10541958;27;20441;-63
2024/01/19 09:23:27;;;;;;;6.60;1.33;;;7.60;99.90;;;;;;10542799;27;20047;-63
2024/01/19 09:28:29;;;;;;;12.73;1.97;;;6.80;99.90;;;;;;10533174;27;20058;-63
2024/01/19 09:33:33;;;;;;;16.45;2.20;;;6.40;99.90;;;;;;10542407;27;20058;-62
2024/01/19 09:38:35;;;;;;;8.93;1.83;;;8.10;99.90;;;;;;10537065;27;20067;-64
2024/01/19 09:43:42;;;;;;;15.77;3.05;;;6.70;99.90;;;;;;10540816;27;20044;-64
2024/01/19 09:48:58;;;;;;;4.13;1.42;;;6.80;99.90;;;;;;10542702;27;20605;-64
2024/01/19 09:54:04;;;;;;;15.40;2.60;;;6.90;99.90;;;;;;10544223;27;21387;-63
2024/01/19 09:59:08;;;;;;;12.27;3.17;;;6.30;99.90;;;;;;10541429;27;20098;-63
2024/01/19 10:04:14;;;;;;;9.38;1.73;;;5.70;99.90;;;;;;10548582;27;20048;-62
2024/01/19 10:09:18;;;;;;;13.65;3.15;;;6.40;99.90;;;;;;10543084;27;20060;-63
2024/01/19 10:14:20;;;;;;;9.40;2.05;;;6.00;99.90;;;;;;10540602;27;20955;-61
2024/01/19 10:19:25;;;;;;;12.32;3.40;;;6.10;99.90;;;;;;10536857;27;20051;-64
2024/01/19 10:24:27;;;;;;;10.30;2.08;;;5.50;99.90;;;;;;10536487;27;20130;-64
2024/01/19 10:29:31;;;;;;;9.18;2.53;;;5.20;99.90;;;;;;10539984;27;20175;-64
2024/01/19 10:34:34;;;;;;;12.40;1.65;;;5.10;99.90;;;;;;10538571;27;20047;-62
2024/01/19 10:39:36;;;;;;;9.05;2.03;;;5.20;99.90;;;;;;10536041;27;20047;-65
2024/01/19 10:44:40;;;;;;;9.23;1.95;;;5.50;99.90;;;;;;10538455;27;20047;-65
2024/01/19 10:49:43;;;;;;;11.18;3.17;;;5.20;99.90;;;;;;10537973;27;20059;-63
2024/01/19 10:54:50;;;;;;;10.52;3.20;;;5.60;99.90;;;;;;10541619;27;20044;-63
2024/01/19 10:59:52;;;;;;;10.07;2.85;;;5.60;99.90;;;;;;10542370;27;20857;-63
2024/01/19 11:04:55;;;;;;;8.57;2.95;;;5.30;99.90;;;;;;10542713;27;20039;-62
2024/01/19 11:09:57;;;;;;;8.10;1.88;;;5.90;99.90;;;;;;10531534;27;20054;-63
2024/01/19 11:15:02;;;;;;;9.70;2.38;;;5.70;99.90;;;;;;10535869;27;20058;-64
2024/01/19 11:20:06;;;;;;;11.23;3.30;;;5.40;99.90;;;;;;10537740;27;20075;-63
2024/01/19 11:25:14;;;;;;;6.53;3.10;;;5.20;99.90;;;;;;10539274;27;20043;-64
2024/01/19 11:30:27;;;;;;;7.57;2.83;;;5.70;99.90;;;;;;10536894;27;22996;-64
2024/01/19 11:35:41;;;;;;;12.13;4.03;;;5.80;99.90;;;;;;10541705;27;20538;-64
2024/01/19 11:40:43;;;;;;;;;;;5.50;99.90;;;;;;10538235;27;21230;-65
2024/01/19 11:45:45;;;;;;;7.55;3.10;;;5.40;99.90;;;;;;10551135;27;19927;-65
2024/01/19 11:50:52;;;;;;;5.80;2.33;;;5.80;99.90;;;;;;10547344;27;20044;-64
2024/01/19 11:55:54;;;;;;;4.43;1.92;;;5.60;99.90;;;;;;10546719;27;20050;-63
2024/01/19 12:00:57;;;;;;;8.80;2.80;;;6.00;99.90;;;;;;10536427;27;20066;-64
2024/01/19 12:06:02;;;;;;;7.80;2.25;;;5.80;99.90;;;;;;10541475;27;20043;-62
2024/01/19 12:11:06;;;;;;;9.65;2.95;;;5.50;99.90;;;;;;10530325;28;20128;-64
2024/01/19 12:16:08;;;;;;;10.45;3.35;;;6.00;99.90;;;;;;10543967;28;20050;-63
2024/01/19 12:21:12;;;;;;;7.82;3.45;;;5.80;99.90;;;;;;10544798;28;20418;-63
2024/01/19 12:26:21;;;;;;;5.15;2.53;;;5.80;99.90;;;;;;10547751;28;20125;-62
2024/01/19 12:31:24;;;;;;;5.93;2.78;;;6.00;99.90;;;;;;10545890;28;20501;-64
2024/01/19 12:36:28;;;;;;;8.60;2.58;;;6.30;99.90;;;;;;10552542;27;20043;-62
2024/01/19 12:41:30;;;;;;;;;;;5.80;99.90;;;;;;10552198;27;20063;-62
2024/01/19 12:46:32;;;;;;;5.63;1.90;;;5.80;99.90;;;;;;10548588;27;19930;-64
2024/01/19 12:51:36;;;;;;;15.20;3.17;;;6.70;99.90;;;;;;10552027;27;20150;-64
2024/01/19 12:56:38;;;;;;;2.90;1.77;;;6.40;99.90;;;;;;10557628;27;21261;-62
2024/01/19 13:01:43;;;;;;;8.60;1.85;;;6.30;99.90;;;;;;10547853;27;20512;-62
2024/01/19 13:06:47;;;;;;;7.25;2.22;;;6.50;99.90;;;;;;10543824;27;20052;-64
2024/01/19 13:11:49;;;;;;;2.63;1.23;;;6.40;99.90;;;;;;10540228;27;20051;-63
2024/01/19 13:16:52;;;;;;;10.40;3.97;;;7.10;99.90;;;;;;10545338;27;20085;-62
2024/01/19 13:21:56;;;;;;;9.05;2.63;;;6.80;99.90;;;;;;10532463;27;20406;-63
2024/01/19 13:27:00;;;;;;;4.38;2.10;;;7.50;99.90;;;;;;10544790;27;20498;-62
2024/01/19 13:32:02;;;;;;;5.57;1.85;;;7.90;99.90;;;;;;10542415;27;20051;-63
2024/01/19 13:37:06;;;;;;;4.47;1.60;;;8.50;99.90;;;;;;10541046;27;20052;-62
2024/01/19 13:42:09;;;;;;;7.20;1.60;;;8.50;99.90;;;;;;10546959;27;20058;-64
2024/01/19 13:47:10;;;;;;;6.28;0.82;;;8.60;99.90;;;;;;10543653;27;20070;-64
2024/01/19 13:52:14;;;;;;;5.47;1.20;;;8.00;99.90;;;;;;10541452;27;20048;-63
2024/01/19 13:57:16;;;;;;;3.47;1.17;;;8.00;99.90;;;;;;10539382;27;20376;-63
2024/01/19 14:02:19;;;;;;;9.45;1.33;;;7.70;99.90;;;;;;10544216;27;20147;-64
2024/01/19 14:07:22;;;;;;;4.45;1.58;;;8.30;99.90;;;;;;10540370;27;20039;-62
2024/01/19 14:12:25;;;;;;;6.90;1.35;;;8.30;99.90;;;;;;10539242;27;20052;-62
2024/01/19 14:17:27;;;;;;;3.00;0.98;;;8.10;99.90;;;;;;10539605;27;20035;-62
2024/01/19 14:22:30;;;;;;;4.70;0.90;;;8.60;99.90;;;;;;10542774;27;20043;-63
2024/01/19 14:27:32;;;;;;;6.28;1.58;;;8.50;99.90;;;;;;10544393;27;20142;-63
2024/01/19 14:32:38;;;;;;;3.72;0.88;;;9.20;99.90;;;;;;10541514;27;20071;-64
2024/01/19 14:37:42;;;;;;;6.95;1.80;;;9.00;99.90;;;;;;10537383;27;20043;-63
2024/01/19 14:42:44;;;;;;;4.43;1.00;;;9.90;99.90;;;;;;10535419;27;20086;-63
2024/01/19 14:47:46;;;;;;;6.03;1.20;;;8.80;99.90;;;;;;10542495;27;20047;-62
2024/01/19 14:52:49;;;;;;;5.43;1.42;;;8.60;99.90;;;;;;10532779;27;20574;-63
2024/01/19 14:57:51;;;;;;;5.60;1.00;;;8.80;99.90;;;;;;10539753;27;20400;-63
2024/01/19 15:02:54;;;;;;;11.35;1.52;;;8.90;99.90;;;;;;10541369;27;20073;-62
2024/01/19 15:07:57;;;;;;;10.80;1.27;;;8.70;99.90;;;;;;10537969;27;20058;-63
2024/01/19 15:13:00;;;;;;;7.05;1.58;;;9.90;99.90;;;;;;10535714;27;20090;-63
2024/01/19 15:18:02;;;;;;;4.65;1.60;;;10.10;99.90;;;;;;10539045;27;20345;-63
2024/01/19 15:23:06;;;;;;;4.40;2.28;;;9.60;99.90;;;;;;10533252;27;20046;-63
2024/01/19 15:28:08;;;;;;;2.78;1.23;;;9.30;99.90;;;;;;10539940;27;20664;-62
2024/01/19 15:33:10;;;;;;;8.70;1.33;;;8.40;99.90;;;;;;10537148;27;20080;-64
2024/01/19 15:38:15;;;;;;;13.30;2.67;;;8.30;99.90;;;;;;10537033;27;20102;-62
2024/01/19 15:43:17;;;;;;;5.75;1.55;;;7.50;99.90;;;;;;10537442;27;20725;-63
2024/01/19 15:48:19;;;;;;;10.93;2.70;;;7.40;99.90;;;;;;10542718;27;20062;-63
2024/01/19 15:53:23;;;;;;;10.00;2.87;;;8.00;99.90;;;;;;10529979;27;20051;-63
2024/01/19 15:58:25;;;;;;;2.47;1.15;;;7.90;99.90;;;;;;10545318;27;20702;-62
2024/01/19 16:03:27;;;;;;;6.38;1.98;;;9.40;99.90;;;;;;10535229;28;20078;-63
2024/01/19 16:08:30;;;;;;;9.32;1.83;;;8.40;99.90;;;;;;10532325;27;20062;-62
2024/01/19 16:13:32;;;;;;;7.15;1.48;;;9.00;99.90;;;;;;10542085;28;20055;-63
2024/01/19 16:18:34;;;;;;;2.30;1.00;;;8.40;99.90;;;;;;10529197;28;20089;-63
2024/01/19 16:23:40;;;;;;;5.72;1.25;;;9.70;99.90;;;;;;10535357;28;20794;-62
2024/01/19 16:28:42;;;;;;;7.05;1.23;;;8.00;99.90;;;;;;10525715;28;20047;-62
2024/01/19 16:33:45;;;;;;;6.43;1.53;;;8.40;99.90;;;;;;10530989;28;20775;-63
2024/01/19 16:38:49;;;;;;;11.25;2.42;;;9.20;99.90;;;;;;10528625;28;20051;-63
2024/01/19 16:43:51;;;;;;;18.88;1.50;;;7.60;99.90;;;;;;10532341;28;20040;-63
2024/01/19 16:48:53;;;;;;;8.50;2.22;;;9.00;99.90;;;;;;10530908;28;20048;-65
2024/01/19 16:53:56;;;;;;;12.10;1.83;;;11.50;99.90;;;;;;10539263;28;20742;-64
2024/01/19 16:58:58;;;;;;;5.00;1.58;;;10.20;99.90;;;;;;10532841;28;20460;-64
2024/01/19 17:04:00;;;;;;;11.98;2.38;;;9.40;99.90;;;;;;10531594;28;20853;-63
2024/01/19 17:09:04;;;;;;;9.30;1.80;;;7.70;99.90;;;;;;10531061;28;20651;-63
2024/01/19 17:14:06;;;;;;;7.50;1.85;;;6.70;99.90;;;;;;10522623;28;20459;-63
2024/01/19 17:19:11;;;;;;;3.22;1.35;;;7.40;99.90;;;;;;10524674;27;20060;-63
2024/01/19 17:24:15;;;;;;;5.63;2.05;;;8.50;99.90;;;;;;10533819;27;20723;-63
2024/01/19 17:29:17;;;;;;;4.65;1.65;;;7.60;99.90;;;;;;10531694;28;20048;-63
2024/01/19 17:34:19;;;;;;;9.65;2.50;;;8.50;99.90;;;;;;10546724;27;20152;-62
2024/01/19 17:39:22;;;;;;;6.40;2.28;;;8.50;99.90;;;;;;10537556;27;20043;-64
2024/01/19 17:44:24;;;;;;;7.20;1.67;;;7.40;99.90;;;;;;10538351;27;20047;-64
2024/01/19 17:49:28;;;;;;;7.22;1.98;;;8.50;99.90;;;;;;10536939;27;20128;-64
2024/01/19 17:54:32;;;;;;;4.60;2.35;;;8.10;99.90;;;;;;10534590;27;20047;-63
2024/01/19 17:59:34;;;;;;;6.07;2.30;;;8.10;99.90;;;;;;10537252;27;20059;-63
2024/01/19 18:04:36;;;;;;;6.32;1.98;;;8.10;99.90;;;;;;10533422;27;20088;-62
2024/01/19 18:09:40;;;;;;;5.20;1.63;;;7.30;99.90;;;;;;10538379;27;20692;-63
2024/01/19 18:14:43;;;;;;;6.10;1.77;;;7.10;99.90;;;;;;10537355;27;20564;-62
2024/01/19 18:19:45;;;;;;;7.43;2.05;;;6.10;99.90;;;;;;10544685;27;20865;-63
2024/01/19 18:24:48;;;;;;;17.00;2.65;;;5.50;99.90;;;;;;10535027;27;20128;-68
2024/01/19 18:29:51;;;;;;;7.63;3.00;;;5.80;99.90;;;;;;10537556;27;20075;-65
2024/01/19 18:34:53;;;;;;;6.18;2.67;;;6.40;99.90;;;;;;10541228;27;20055;-65
2024/01/19 18:39:58;;;;;;;8.13;3.35;;;6.60;99.90;;;;;;10531621;27;20860;-63
2024/01/19 18:45:00;;;;;;;4.75;2.10;;;6.00;99.90;;;;;;10537529;27;20047;-64
2024/01/19 18:50:02;;;;;;;7.57;2.47;;;6.00;99.90;;;;;;10538909;27;20190;-64
2024/01/19 18:55:06;;;;;;;8.55;2.58;;;6.20;99.90;;;;;;10539805;27;20039;-65
2024/01/19 19:00:10;;;;;;;5.60;1.85;;;6.10;99.90;;;;;;10530757;27;20059;-67
2024/01/19 19:05:11;;;;;;;5.97;2.05;;;6.40;99.90;;;;;;10529667;27;20163;-67
2024/01/19 19:10:15;;;;;;;3.97;1.88;;;6.20;99.90;;;;;;10539862;27;20039;-66
2024/01/19 19:15:17;;;;;;;14.30;2.60;;;7.60;99.90;;;;;;10533152;27;20075;-64
2024/01/19 19:20:20;;;;;;;4.72;2.10;;;10.30;99.90;;;;;;10535731;27;20055;-64
2024/01/19 19:25:23;;;;;;;8.23;2.40;;;8.80;99.90;;;;;;10529402;27;20048;-65
2024/01/19 19:30:26;;;;;;;9.43;3.20;;;7.50;99.90;;;;;;10530370;27;20058;-65
2024/01/19 19:35:30;;;;;;;7.50;3.30;;;8.30;99.90;;;;;;10536702;27;20039;-66
2024/01/19 19:40:36;;;;;;;6.80;1.85;;;7.90;99.90;;;;;;10532073;27;20616;-65
2024/01/19 19:45:38;;;;;;;9.35;2.42;;;8.20;99.90;;;;;;10532512;27;20108;-63
2024/01/19 19:50:40;;;;;;;6.90;2.00;;;8.10;99.90;;;;;;10536655;27;20074;-64
2024/01/19 19:55:47;;;;;;;5.45;2.53;;;6.70;99.90;;;;;;10532979;28;20051;-65
2024/01/19 20:00:49;;;;;;;9.73;3.58;;;7.50;99.90;;;;;;10531675;27;20043;-66
2024/01/19 20:05:51;;;;;;;13.98;2.50;;;7.60;99.90;;;;;;10529213;27;20122;-67
2024/01/19 20:10:54;;;;;;;9.57;2.67;;;7.60;99.90;;;;;;10530580;28;20102;-67
2024/01/19 20:15:56;;;;;;;8.63;2.10;;;7.90;99.90;;;;;;10529773;28;20040;-65
2024/01/19 20:20:58;;;;;;;8.43;1.77;;;8.20;99.90;;;;;;10541972;28;20071;-67
2024/01/19 20:26:09;;;;;;;18.10;3.15;;;7.30;99.90;;;;;;10541657;28;20052;-67
2024/01/19 20:31:11;;;;;;;18.35;2.67;;;7.20;99.90;;;;;;10537838;28;20111;-65
2024/01/19 20:36:13;;;;;;;5.25;3.28;;;6.90;99.90;;;;;;10538357;28;20134;-67
2024/01/19 20:41:16;;;;;;;21.38;4.70;;;8.30;99.90;;;;;;10528349;28;20201;-67
2024/01/19 20:46:18;;;;;;;16.90;3.65;;;10.60;99.90;;;;;;10533110;28;20489;-67
2024/01/19 20:51:20;;;;;;;11.57;4.65;;;12.40;99.90;;;;;;10536416;28;20059;-67
2024/01/19 20:56:23;;;;;;;8.88;3.17;;;11.70;99.90;;;;;;10540276;27;20043;-66
2024/01/19 21:01:26;;;;;;;5.63;3.20;;;12.80;99.90;;;;;;10542593;27;20099;-66
2024/01/19 21:06:28;;;;;;;13.10;3.90;;;13.00;99.90;;;;;;10540175;27;20491;-66
2024/01/19 21:11:31;;;;;;;15.70;4.03;;;13.00;99.90;;;;;;10542230;27;20052;-66
2024/01/19 21:16:33;;;;;;;10.57;4.28;;;12.90;99.90;;;;;;10533690;27;20039;-68
2024/01/19 21:21:36;;;;;;;12.73;4.32;;;11.70;99.90;;;;;;10530819;27;22577;-67
2024/01/19 21:26:39;;;;;;;11.30;5.25;;;11.20;99.90;;;;;;10541872;27;20040;-65
2024/01/19 21:31:45;;;;;;;15.40;4.63;;;11.80;99.90;;;;;;10543298;27;20228;-65
2024/01/19 21:36:47;;;;;;;10.68;6.40;;;12.60;99.90;;;;;;10539431;27;20040;-67
2024/01/19 21:41:51;;;;;;;9.57;6.07;;;11.70;99.90;;;;;;10543694;27;21542;-66
2024/01/19 21:46:53;;;;;;;24.52;5.28;;;9.10;99.90;;;;;;10538617;27;20047;-66
2024/01/19 21:51:55;;;;;;;13.88;7.20;;;9.60;99.90;;;;;;10538768;27;20849;-65
2024/01/19 21:56:58;;;;;;;15.98;6.38;;;9.40;99.90;;;;;;10544439;27;20952;-66
2024/01/19 22:02:00;;;;;;;9.25;5.47;;;9.00;99.90;;;;;;10530390;27;20054;-67
2024/01/19 22:07:02;;;;;;;8.43;4.22;;;9.70;99.90;;;;;;10553274;27;20043;-65
2024/01/19 22:12:07;;;;;;;10.68;5.20;;;9.40;99.90;;;;;;10542711;27;20045;-65
2024/01/19 22:17:09;;;;;;;14.77;6.85;;;11.40;99.90;;;;;;10543503;27;20096;-66
2024/01/19 22:22:11;;;;;;;9.27;6.03;;;11.60;99.90;;;;;;10540578;27;20070;-66
2024/01/19 22:27:16;;;;;;;14.10;7.65;;;9.60;99.90;;;;;;10539405;27;20154;-67
2024/01/19 22:32:18;;;;;;;13.50;5.57;;;8.00;99.90;;;;;;10535726;27;20066;-66
2024/01/19 22:37:20;;;;;;;14.90;7.50;;;9.70;99.90;;;;;;10536149;27;20042;-66
2024/01/19 22:42:24;;;;;;;16.27;6.05;;;9.10;99.90;;;;;;10528182;27;20146;-66
2024/01/19 22:47:26;;;;;;;14.25;7.53;;;10.40;99.90;;;;;;10533846;27;20169;-66
2024/01/19 22:52:28;;;;;;;18.48;7.03;;;10.90;99.90;;;;;;10538333;27;20380;-66
2024/01/19 22:57:31;;;;;;;12.38;7.05;;;10.50;99.90;;;;;;10543633;27;20052;-66
2024/01/19 23:02:39;;;;;;;16.48;9.15;;;9.70;99.90;;;;;;10545369;27;20498;-65
2024/01/19 23:07:41;;;;;;;14.68;7.15;;;9.40;99.90;;;;;;10533341;27;20039;-65
2024/01/19 23:12:44;;;;;;;13.38;7.93;;;8.40;99.90;;;;;;10539148;27;20124;-66
2024/01/19 23:17:47;;;;;;;18.38;9.45;;;9.70;99.90;;;;;;10542532;27;20074;-66
2024/01/19 23:22:48;;;;;;;20.17;10.95;;;10.50;99.90;;;;;;10542907;27;20051;-67
2024/01/19 23:27:55;;;;;;;18.98;12.93;;;10.00;99.90;;;;;;10541147;27;20054;-67
2024/01/19 23:33:00;;;;;;;20.10;11.13;;;10.20;99.90;;;;;;10546942;27;20048;-66
2024/01/19 23:38:12;;;;;;;18.65;10.27;;;10.60;99.90;;;;;;10533697;28;20035;-65
2024/01/19 23:43:15;;;;;;;22.93;11.17;;;9.60;99.90;;;;;;10538354;27;20051;-66
2024/01/19 23:48:17;;;;;;;20.90;10.52;;;9.00;99.90;;;;;;10545252;27;20483;-66
2024/01/19 23:53:19;;;;;;;21.67;11.68;;;9.90;99.90;;;;;;10544091;27;20143;-65
2024/01/19 23:58:23;;;;;;;24.00;12.07;;;10.30;99.90;;;;;;10542854;27;20040;-65
